sensor_id;sensor_type;location;lat;lon;timestamp;P1;durP1;ratioP1;P2;durP2;ratioP2
38123;SDS011;23934;47.998;9.832;2023-11-21T00:01:17;7.75;;;1.63;;
38123;SDS011;23934;47.998;9.832;2023-11-21T00:03:43;2.92;;;1.83;;
38123;SDS011;23934;47.998;9.832;2023-11-21T00:06:09;4.47;;;1.02;;
38123;SDS011;23934;47.998;9.832;2023-11-21T00:08:36;4.05;;;1.42;;
38123;SDS011;23934;47.998;9.832;2023-11-21T00:11:02;2.22;;;1.33;;
38123;SDS011;23934;47.998;9.832;2023-11-21T00:13:30;2.63;;;0.88;;
38123;SDS011;23934;47.998;9.832;2023-11-21T00:15:56;4.57;;;1.30;;
38123;SDS011;23934;47.998;9.832;2023-11-21T00:18:22;4.85;;;0.93;;
38123;SDS011;23934;47.998;9.832;2023-11-21T00:20:48;9.65;;;1.30;;
38123;SDS011;23934;47.998;9.832;2023-11-21T00:23:14;4.93;;;1.15;;
38123;SDS011;23934;47.998;9.832;2023-11-21T00:25:40;4.15;;;0.95;;
38123;SDS011;23934;47.998;9.832;2023-11-21T00:28:06;8.43;;;1.10;;
38123;SDS011;23934;47.998;9.832;2023-11-21T00:30:32;6.57;;;1.23;;
38123;SDS011;23934;47.998;9.832;2023-11-21T00:32:58;2.22;;;0.63;;
38123;SDS011;23934;47.998;9.832;2023-11-21T00:35:24;5.35;;;1.42;;
38123;SDS011;23934;47.998;9.832;2023-11-21T00:37:50;1.60;;;0.90;;
38123;SDS011;23934;47.998;9.832;2023-11-21T00:40:17;4.40;;;1.08;;
38123;SDS011;23934;47.998;9.832;2023-11-21T00:42:47;5.22;;;0.70;;
38123;SDS011;23934;47.998;9.832;2023-11-21T00:45:13;2.20;;;1.00;;
38123;SDS011;23934;47.998;9.832;2023-11-21T00:47:39;1.77;;;0.85;;
38123;SDS011;23934;47.998;9.832;2023-11-21T00:50:05;6.28;;;1.42;;
38123;SDS011;23934;47.998;9.832;2023-11-21T00:52:32;5.82;;;0.93;;
38123;SDS011;23934;47.998;9.832;2023-11-21T00:54:58;12.02;;;1.38;;
38123;SDS011;23934;47.998;9.832;2023-11-21T00:57:25;8.88;;;1.00;;
38123;SDS011;23934;47.998;9.832;2023-11-21T00:59:51;5.15;;;1.85;;
38123;SDS011;23934;47.998;9.832;2023-11-21T01:02:17;4.93;;;1.50;;
38123;SDS011;23934;47.998;9.832;2023-11-21T01:04:43;7.95;;;1.02;;
38123;SDS011;23934;47.998;9.832;2023-11-21T01:07:09;1.35;;;0.60;;
38123;SDS011;23934;47.998;9.832;2023-11-21T01:09:35;1.35;;;0.90;;
38123;SDS011;23934;47.998;9.832;2023-11-21T01:12:01;4.80;;;1.50;;
38123;SDS011;23934;47.998;9.832;2023-11-21T01:14:27;5.15;;;1.52;;
38123;SDS011;23934;47.998;9.832;2023-11-21T01:16:53;10.27;;;1.63;;
38123;SDS011;23934;47.998;9.832;2023-11-21T01:19:19;2.78;;;1.00;;
38123;SDS011;23934;47.998;9.832;2023-11-21T01:21:45;2.67;;;0.82;;
38123;SDS011;23934;47.998;9.832;2023-11-21T01:24:12;12.98;;;0.90;;
38123;SDS011;23934;47.998;9.832;2023-11-21T01:26:38;8.88;;;0.98;;
38123;SDS011;23934;47.998;9.832;2023-11-21T01:29:03;5.20;;;0.82;;
38123;SDS011;23934;47.998;9.832;2023-11-21T01:31:30;5.20;;;1.30;;
38123;SDS011;23934;47.998;9.832;2023-11-21T01:33:56;1.55;;;0.60;;
38123;SDS011;23934;47.998;9.832;2023-11-21T01:36:23;18.70;;;1.55;;
38123;SDS011;23934;47.998;9.832;2023-11-21T01:38:56;1.90;;;0.85;;
38123;SDS011;23934;47.998;9.832;2023-11-21T01:41:24;6.07;;;0.70;;
38123;SDS011;23934;47.998;9.832;2023-11-21T01:43:51;2.38;;;0.95;;
38123;SDS011;23934;47.998;9.832;2023-11-21T01:46:18;8.95;;;1.45;;
38123;SDS011;23934;47.998;9.832;2023-11-21T01:48:45;2.90;;;0.68;;
38123;SDS011;23934;47.998;9.832;2023-11-21T01:51:11;7.85;;;0.70;;
38123;SDS011;23934;47.998;9.832;2023-11-21T01:53:37;2.50;;;0.93;;
38123;SDS011;23934;47.998;9.832;2023-11-21T01:56:03;1.25;;;0.70;;
38123;SDS011;23934;47.998;9.832;2023-11-21T01:58:30;6.60;;;0.95;;
38123;SDS011;23934;47.998;9.832;2023-11-21T02:00:57;4.68;;;1.35;;
38123;SDS011;23934;47.998;9.832;2023-11-21T02:03:23;0.77;;;0.60;;
38123;SDS011;23934;47.998;9.832;2023-11-21T02:05:49;0.47;;;0.30;;
38123;SDS011;23934;47.998;9.832;2023-11-21T02:08:15;6.72;;;1.15;;
38123;SDS011;23934;47.998;9.832;2023-11-21T02:10:41;15.02;;;1.40;;
38123;SDS011;23934;47.998;9.832;2023-11-21T02:13:07;3.40;;;0.80;;
38123;SDS011;23934;47.998;9.832;2023-11-21T02:15:33;12.95;;;1.35;;
38123;SDS011;23934;47.998;9.832;2023-11-21T02:17:59;6.35;;;0.82;;
38123;SDS011;23934;47.998;9.832;2023-11-21T02:20:25;16.95;;;0.98;;
38123;SDS011;23934;47.998;9.832;2023-11-21T02:22:54;14.70;;;1.38;;
38123;SDS011;23934;47.998;9.832;2023-11-21T02:25:29;2.50;;;1.13;;
38123;SDS011;23934;47.998;9.832;2023-11-21T02:27:57;3.45;;;1.20;;
38123;SDS011;23934;47.998;9.832;2023-11-21T02:30:23;6.65;;;1.20;;
38123;SDS011;23934;47.998;9.832;2023-11-21T02:32:50;5.45;;;0.80;;
38123;SDS011;23934;47.998;9.832;2023-11-21T02:35:19;2.22;;;1.05;;
38123;SDS011;23934;47.998;9.832;2023-11-21T02:37:48;5.55;;;1.10;;
38123;SDS011;23934;47.998;9.832;2023-11-21T02:40:15;4.22;;;0.95;;
38123;SDS011;23934;47.998;9.832;2023-11-21T02:42:45;7.30;;;1.58;;
38123;SDS011;23934;47.998;9.832;2023-11-21T02:45:12;4.00;;;1.63;;
38123;SDS011;23934;47.998;9.832;2023-11-21T02:47:39;1.65;;;0.43;;
38123;SDS011;23934;47.998;9.832;2023-11-21T02:50:05;0.50;;;0.47;;
38123;SDS011;23934;47.998;9.832;2023-11-21T02:52:33;8.13;;;0.77;;
38123;SDS011;23934;47.998;9.832;2023-11-21T02:55:00;2.67;;;1.08;;
38123;SDS011;23934;47.998;9.832;2023-11-21T02:57:26;7.65;;;0.68;;
38123;SDS011;23934;47.998;9.832;2023-11-21T02:59:52;17.52;;;1.33;;
38123;SDS011;23934;47.998;9.832;2023-11-21T03:02:18;0.77;;;0.60;;
38123;SDS011;23934;47.998;9.832;2023-11-21T03:04:44;6.75;;;1.10;;
38123;SDS011;23934;47.998;9.832;2023-11-21T03:07:10;14.48;;;1.52;;
38123;SDS011;23934;47.998;9.832;2023-11-21T03:09:36;7.18;;;0.88;;
38123;SDS011;23934;47.998;9.832;2023-11-21T03:12:02;8.15;;;1.30;;
38123;SDS011;23934;47.998;9.832;2023-11-21T03:14:28;0.73;;;0.40;;
38123;SDS011;23934;47.998;9.832;2023-11-21T03:16:54;1.00;;;0.52;;
38123;SDS011;23934;47.998;9.832;2023-11-21T03:19:20;0.85;;;0.47;;
38123;SDS011;23934;47.998;9.832;2023-11-21T03:21:46;3.85;;;1.65;;
38123;SDS011;23934;47.998;9.832;2023-11-21T03:24:12;4.70;;;0.70;;
38123;SDS011;23934;47.998;9.832;2023-11-21T03:26:38;2.60;;;0.73;;
38123;SDS011;23934;47.998;9.832;2023-11-21T03:29:04;3.60;;;0.80;;
38123;SDS011;23934;47.998;9.832;2023-11-21T03:31:30;12.60;;;0.75;;
38123;SDS011;23934;47.998;9.832;2023-11-21T03:33:56;2.13;;;1.08;;
38123;SDS011;23934;47.998;9.832;2023-11-21T03:36:22;5.97;;;0.90;;
38123;SDS011;23934;47.998;9.832;2023-11-21T03:38:50;8.07;;;1.63;;
38123;SDS011;23934;47.998;9.832;2023-11-21T03:41:16;5.93;;;1.48;;
38123;SDS011;23934;47.998;9.832;2023-11-21T03:43:42;6.75;;;1.35;;
38123;SDS011;23934;47.998;9.832;2023-11-21T03:46:08;3.65;;;1.15;;
38123;SDS011;23934;47.998;9.832;2023-11-21T03:48:33;11.55;;;1.27;;
38123;SDS011;23934;47.998;9.832;2023-11-21T03:51:00;4.93;;;1.50;;
38123;SDS011;23934;47.998;9.832;2023-11-21T03:53:26;4.97;;;0.70;;
38123;SDS011;23934;47.998;9.832;2023-11-21T03:55:52;1.77;;;0.70;;
38123;SDS011;23934;47.998;9.832;2023-11-21T03:58:18;1.13;;;0.50;;
38123;SDS011;23934;47.998;9.832;2023-11-21T04:00:44;3.17;;;1.75;;
38123;SDS011;23934;47.998;9.832;2023-11-21T04:03:10;5.45;;;1.92;;
38123;SDS011;23934;47.998;9.832;2023-11-21T04:05:36;16.02;;;1.27;;
38123;SDS011;23934;47.998;9.832;2023-11-21T04:08:02;2.85;;;1.17;;
38123;SDS011;23934;47.998;9.832;2023-11-21T04:10:28;3.92;;;1.42;;
38123;SDS011;23934;47.998;9.832;2023-11-21T04:12:54;2.60;;;1.10;;
38123;SDS011;23934;47.998;9.832;2023-11-21T04:15:19;1.38;;;0.55;;
38123;SDS011;23934;47.998;9.832;2023-11-21T04:17:45;2.70;;;0.98;;
38123;SDS011;23934;47.998;9.832;2023-11-21T04:20:11;16.02;;;1.48;;
38123;SDS011;23934;47.998;9.832;2023-11-21T04:22:41;0.82;;;0.50;;
38123;SDS011;23934;47.998;9.832;2023-11-21T04:25:11;2.00;;;0.30;;
38123;SDS011;23934;47.998;9.832;2023-11-21T04:27:39;5.72;;;0.75;;
38123;SDS011;23934;47.998;9.832;2023-11-21T04:30:05;5.28;;;0.95;;
38123;SDS011;23934;47.998;9.832;2023-11-21T04:32:31;3.38;;;1.00;;
38123;SDS011;23934;47.998;9.832;2023-11-21T04:34:57;5.25;;;0.85;;
38123;SDS011;23934;47.998;9.832;2023-11-21T04:37:23;10.45;;;1.60;;
38123;SDS011;23934;47.998;9.832;2023-11-21T04:39:49;5.47;;;0.80;;
38123;SDS011;23934;47.998;9.832;2023-11-21T04:42:15;3.35;;;0.85;;
38123;SDS011;23934;47.998;9.832;2023-11-21T04:44:41;1.58;;;0.75;;
38123;SDS011;23934;47.998;9.832;2023-11-21T04:47:09;7.32;;;1.05;;
38123;SDS011;23934;47.998;9.832;2023-11-21T04:49:35;2.20;;;1.15;;
38123;SDS011;23934;47.998;9.832;2023-11-21T04:52:00;0.73;;;0.50;;
38123;SDS011;23934;47.998;9.832;2023-11-21T04:54:28;1.20;;;0.80;;
38123;SDS011;23934;47.998;9.832;2023-11-21T04:56:54;1.42;;;0.60;;
38123;SDS011;23934;47.998;9.832;2023-11-21T04:59:21;2.92;;;0.52;;
38123;SDS011;23934;47.998;9.832;2023-11-21T05:01:49;1.90;;;0.47;;
38123;SDS011;23934;47.998;9.832;2023-11-21T05:04:15;0.60;;;0.57;;
38123;SDS011;23934;47.998;9.832;2023-11-21T05:06:41;0.57;;;0.45;;
38123;SDS011;23934;47.998;9.832;2023-11-21T05:09:07;1.48;;;0.55;;
38123;SDS011;23934;47.998;9.832;2023-11-21T05:11:36;2.72;;;0.50;;
38123;SDS011;23934;47.998;9.832;2023-11-21T05:14:03;0.68;;;0.50;;
38123;SDS011;23934;47.998;9.832;2023-11-21T05:16:30;8.13;;;1.00;;
38123;SDS011;23934;47.998;9.832;2023-11-21T05:18:56;5.93;;;0.55;;
38123;SDS011;23934;47.998;9.832;2023-11-21T05:21:26;1.20;;;0.45;;
38123;SDS011;23934;47.998;9.832;2023-11-21T05:23:52;1.02;;;0.68;;
38123;SDS011;23934;47.998;9.832;2023-11-21T05:26:18;1.08;;;0.50;;
38123;SDS011;23934;47.998;9.832;2023-11-21T05:28:44;3.17;;;0.90;;
38123;SDS011;23934;47.998;9.832;2023-11-21T05:31:10;2.00;;;0.90;;
38123;SDS011;23934;47.998;9.832;2023-11-21T05:33:36;1.27;;;0.80;;
38123;SDS011;23934;47.998;9.832;2023-11-21T05:36:02;2.70;;;1.70;;
38123;SDS011;23934;47.998;9.832;2023-11-21T05:38:28;3.97;;;1.67;;
38123;SDS011;23934;47.998;9.832;2023-11-21T05:40:54;5.70;;;1.73;;
38123;SDS011;23934;47.998;9.832;2023-11-21T05:43:20;6.38;;;1.38;;
38123;SDS011;23934;47.998;9.832;2023-11-21T05:45:46;1.60;;;1.20;;
38123;SDS011;23934;47.998;9.832;2023-11-21T05:48:12;4.20;;;1.23;;
38123;SDS011;23934;47.998;9.832;2023-11-21T05:50:38;12.82;;;3.40;;
38123;SDS011;23934;47.998;9.832;2023-11-21T05:53:04;8.65;;;1.88;;
38123;SDS011;23934;47.998;9.832;2023-11-21T05:55:30;9.45;;;2.35;;
38123;SDS011;23934;47.998;9.832;2023-11-21T05:57:56;2.00;;;0.95;;
38123;SDS011;23934;47.998;9.832;2023-11-21T06:00:22;3.22;;;1.05;;
38123;SDS011;23934;47.998;9.832;2023-11-21T06:02:50;0.95;;;0.85;;
38123;SDS011;23934;47.998;9.832;2023-11-21T06:05:18;1.02;;;0.70;;
38123;SDS011;23934;47.998;9.832;2023-11-21T06:07:45;2.45;;;1.38;;
38123;SDS011;23934;47.998;9.832;2023-11-21T06:10:11;2.20;;;0.80;;
38123;SDS011;23934;47.998;9.832;2023-11-21T06:12:39;0.68;;;0.50;;
38123;SDS011;23934;47.998;9.832;2023-11-21T06:15:07;3.35;;;1.00;;
38123;SDS011;23934;47.998;9.832;2023-11-21T06:17:34;5.03;;;1.20;;
38123;SDS011;23934;47.998;9.832;2023-11-21T06:20:05;2.42;;;0.73;;
38123;SDS011;23934;47.998;9.832;2023-11-21T06:22:37;2.13;;;1.10;;
38123;SDS011;23934;47.998;9.832;2023-11-21T06:25:03;6.95;;;1.90;;
38123;SDS011;23934;47.998;9.832;2023-11-21T06:27:31;3.40;;;1.50;;
38123;SDS011;23934;47.998;9.832;2023-11-21T06:29:57;3.08;;;2.05;;
38123;SDS011;23934;47.998;9.832;2023-11-21T06:32:23;1.77;;;1.20;;
38123;SDS011;23934;47.998;9.832;2023-11-21T06:34:49;1.38;;;0.80;;
38123;SDS011;23934;47.998;9.832;2023-11-21T06:37:16;4.57;;;0.50;;
38123;SDS011;23934;47.998;9.832;2023-11-21T06:39:42;6.13;;;0.30;;
38123;SDS011;23934;47.998;9.832;2023-11-21T06:42:08;1.48;;;0.80;;
38123;SDS011;23934;47.998;9.832;2023-11-21T06:44:34;7.70;;;1.10;;
38123;SDS011;23934;47.998;9.832;2023-11-21T06:47:00;2.03;;;1.50;;
38123;SDS011;23934;47.998;9.832;2023-11-21T06:49:26;3.17;;;1.10;;
38123;SDS011;23934;47.998;9.832;2023-11-21T06:51:52;0.93;;;0.77;;
38123;SDS011;23934;47.998;9.832;2023-11-21T06:54:19;0.88;;;0.60;;
38123;SDS011;23934;47.998;9.832;2023-11-21T06:56:45;2.38;;;0.75;;
38123;SDS011;23934;47.998;9.832;2023-11-21T06:59:12;11.45;;;1.13;;
38123;SDS011;23934;47.998;9.832;2023-11-21T07:01:38;3.88;;;1.45;;
38123;SDS011;23934;47.998;9.832;2023-11-21T07:04:06;3.45;;;1.50;;
38123;SDS011;23934;47.998;9.832;2023-11-21T07:06:32;1.10;;;0.77;;
38123;SDS011;23934;47.998;9.832;2023-11-21T07:08:58;8.15;;;1.38;;
38123;SDS011;23934;47.998;9.832;2023-11-21T07:11:24;13.48;;;2.35;;
38123;SDS011;23934;47.998;9.832;2023-11-21T07:13:50;4.25;;;1.58;;
38123;SDS011;23934;47.998;9.832;2023-11-21T07:16:17;9.05;;;1.77;;
38123;SDS011;23934;47.998;9.832;2023-11-21T07:18:43;3.17;;;1.42;;
38123;SDS011;23934;47.998;9.832;2023-11-21T07:21:09;1.73;;;1.40;;
38123;SDS011;23934;47.998;9.832;2023-11-21T07:23:37;2.53;;;1.75;;
38123;SDS011;23934;47.998;9.832;2023-11-21T07:26:03;4.30;;;1.88;;
38123;SDS011;23934;47.998;9.832;2023-11-21T07:28:33;10.57;;;2.40;;
38123;SDS011;23934;47.998;9.832;2023-11-21T07:31:00;3.47;;;1.63;;
38123;SDS011;23934;47.998;9.832;2023-11-21T07:33:26;2.90;;;1.77;;
38123;SDS011;23934;47.998;9.832;2023-11-21T07:35:52;10.60;;;2.20;;
38123;SDS011;23934;47.998;9.832;2023-11-21T07:38:18;6.05;;;1.30;;
38123;SDS011;23934;47.998;9.832;2023-11-21T07:40:44;3.80;;;1.52;;
38123;SDS011;23934;47.998;9.832;2023-11-21T07:43:10;5.75;;;1.45;;
38123;SDS011;23934;47.998;9.832;2023-11-21T07:45:36;2.90;;;1.60;;
38123;SDS011;23934;47.998;9.832;2023-11-21T07:48:02;1.52;;;1.02;;
38123;SDS011;23934;47.998;9.832;2023-11-21T07:50:30;7.78;;;1.85;;
38123;SDS011;23934;47.998;9.832;2023-11-21T07:52:57;4.07;;;1.92;;
38123;SDS011;23934;47.998;9.832;2023-11-21T07:55:23;3.17;;;1.67;;
38123;SDS011;23934;47.998;9.832;2023-11-21T07:57:50;3.88;;;2.05;;
38123;SDS011;23934;47.998;9.832;2023-11-21T08:00:16;12.43;;;2.38;;
38123;SDS011;23934;47.998;9.832;2023-11-21T08:02:42;8.15;;;2.13;;
38123;SDS011;23934;47.998;9.832;2023-11-21T08:05:11;6.30;;;1.83;;
38123;SDS011;23934;47.998;9.832;2023-11-21T08:07:37;3.67;;;2.08;;
38123;SDS011;23934;47.998;9.832;2023-11-21T08:10:03;8.23;;;1.88;;
38123;SDS011;23934;47.998;9.832;2023-11-21T08:12:32;4.75;;;2.08;;
38123;SDS011;23934;47.998;9.832;2023-11-21T08:14:58;10.40;;;2.20;;
38123;SDS011;23934;47.998;9.832;2023-11-21T08:17:25;9.23;;;2.40;;
38123;SDS011;23934;47.998;9.832;2023-11-21T08:19:51;6.25;;;1.75;;
38123;SDS011;23934;47.998;9.832;2023-11-21T08:22:17;3.35;;;1.35;;
38123;SDS011;23934;47.998;9.832;2023-11-21T08:24:43;8.77;;;1.63;;
38123;SDS011;23934;47.998;9.832;2023-11-21T08:27:11;3.35;;;1.30;;
38123;SDS011;23934;47.998;9.832;2023-11-21T08:29:40;3.30;;;1.52;;
38123;SDS011;23934;47.998;9.832;2023-11-21T08:32:07;3.83;;;1.67;;
38123;SDS011;23934;47.998;9.832;2023-11-21T08:34:32;4.53;;;1.65;;
38123;SDS011;23934;47.998;9.832;2023-11-21T08:36:58;3.05;;;1.38;;
38123;SDS011;23934;47.998;9.832;2023-11-21T08:39:25;3.97;;;1.73;;
38123;SDS011;23934;47.998;9.832;2023-11-21T08:41:51;6.95;;;1.75;;
38123;SDS011;23934;47.998;9.832;2023-11-21T08:44:17;2.75;;;1.55;;
38123;SDS011;23934;47.998;9.832;2023-11-21T08:46:44;8.18;;;1.88;;
38123;SDS011;23934;47.998;9.832;2023-11-21T08:49:11;5.00;;;2.50;;
38123;SDS011;23934;47.998;9.832;2023-11-21T08:51:37;3.85;;;1.75;;
38123;SDS011;23934;47.998;9.832;2023-11-21T08:54:03;11.50;;;2.65;;
38123;SDS011;23934;47.998;9.832;2023-11-21T08:56:32;3.47;;;1.83;;
38123;SDS011;23934;47.998;9.832;2023-11-21T08:58:58;4.18;;;2.10;;
38123;SDS011;23934;47.998;9.832;2023-11-21T09:01:27;4.65;;;2.17;;
38123;SDS011;23934;47.998;9.832;2023-11-21T09:03:53;7.03;;;1.95;;
38123;SDS011;23934;47.998;9.832;2023-11-21T09:06:19;3.40;;;1.50;;
38123;SDS011;23934;47.998;9.832;2023-11-21T09:08:45;2.63;;;1.50;;
38123;SDS011;23934;47.998;9.832;2023-11-21T09:11:11;16.10;;;2.25;;
38123;SDS011;23934;47.998;9.832;2023-11-21T09:13:36;13.45;;;1.65;;
38123;SDS011;23934;47.998;9.832;2023-11-21T09:16:03;2.63;;;1.33;;
38123;SDS011;23934;47.998;9.832;2023-11-21T09:18:29;3.15;;;1.58;;
38123;SDS011;23934;47.998;9.832;2023-11-21T09:20:55;4.50;;;1.98;;
38123;SDS011;23934;47.998;9.832;2023-11-21T09:23:21;3.95;;;2.28;;
38123;SDS011;23934;47.998;9.832;2023-11-21T09:25:47;6.10;;;1.90;;
38123;SDS011;23934;47.998;9.832;2023-11-21T09:28:15;4.57;;;1.45;;
38123;SDS011;23934;47.998;9.832;2023-11-21T09:30:42;3.22;;;1.35;;
38123;SDS011;23934;47.998;9.832;2023-11-21T09:33:08;3.63;;;1.67;;
38123;SDS011;23934;47.998;9.832;2023-11-21T09:35:35;2.25;;;1.48;;
38123;SDS011;23934;47.998;9.832;2023-11-21T09:38:03;8.05;;;1.95;;
38123;SDS011;23934;47.998;9.832;2023-11-21T09:40:35;2.40;;;1.55;;
38123;SDS011;23934;47.998;9.832;2023-11-21T09:43:02;9.55;;;2.08;;
38123;SDS011;23934;47.998;9.832;2023-11-21T09:45:34;21.63;;;2.08;;
38123;SDS011;23934;47.998;9.832;2023-11-21T09:48:00;6.90;;;1.35;;
38123;SDS011;23934;47.998;9.832;2023-11-21T09:50:27;1.73;;;1.08;;
38123;SDS011;23934;47.998;9.832;2023-11-21T09:55:45;2.60;;;1.10;;
38123;SDS011;23934;47.998;9.832;2023-11-21T09:58:12;1.83;;;1.63;;
38123;SDS011;23934;47.998;9.832;2023-11-21T10:00:43;3.20;;;1.30;;
38123;SDS011;23934;47.998;9.832;2023-11-21T10:03:09;1.25;;;1.05;;
38123;SDS011;23934;47.998;9.832;2023-11-21T10:05:36;10.50;;;1.33;;
38123;SDS011;23934;47.998;9.832;2023-11-21T10:08:09;2.33;;;1.33;;
38123;SDS011;23934;47.998;9.832;2023-11-21T10:10:45;7.38;;;1.67;;
38123;SDS011;23934;47.998;9.832;2023-11-21T10:13:13;2.20;;;1.20;;
38123;SDS011;23934;47.998;9.832;2023-11-21T10:15:43;2.28;;;1.60;;
38123;SDS011;23934;47.998;9.832;2023-11-21T10:18:13;6.88;;;1.25;;
38123;SDS011;23934;47.998;9.832;2023-11-21T10:20:43;5.20;;;1.85;;
38123;SDS011;23934;47.998;9.832;2023-11-21T10:23:16;2.17;;;1.35;;
38123;SDS011;23934;47.998;9.832;2023-11-21T10:25:43;3.67;;;1.67;;
38123;SDS011;23934;47.998;9.832;2023-11-21T10:28:09;2.00;;;0.93;;
38123;SDS011;23934;47.998;9.832;2023-11-21T10:30:35;1.15;;;0.80;;
38123;SDS011;23934;47.998;9.832;2023-11-21T10:33:02;3.33;;;1.52;;
38123;SDS011;23934;47.998;9.832;2023-11-21T10:35:38;2.20;;;0.70;;
38123;SDS011;23934;47.998;9.832;2023-11-21T10:38:05;1.42;;;1.10;;
38123;SDS011;23934;47.998;9.832;2023-11-21T10:40:31;0.90;;;0.70;;
38123;SDS011;23934;47.998;9.832;2023-11-21T10:43:05;3.90;;;1.15;;
38123;SDS011;23934;47.998;9.832;2023-11-21T10:45:32;2.10;;;1.25;;
38123;SDS011;23934;47.998;9.832;2023-11-21T10:47:58;6.03;;;1.20;;
38123;SDS011;23934;47.998;9.832;2023-11-21T10:50:24;2.50;;;1.05;;
38123;SDS011;23934;47.998;9.832;2023-11-21T10:52:51;1.60;;;1.13;;
38123;SDS011;23934;47.998;9.832;2023-11-21T10:55:17;1.75;;;1.20;;
38123;SDS011;23934;47.998;9.832;2023-11-21T10:57:46;0.93;;;0.68;;
38123;SDS011;23934;47.998;9.832;2023-11-21T11:00:14;1.75;;;1.00;;
38123;SDS011;23934;47.998;9.832;2023-11-21T11:02:40;1.65;;;0.70;;
38123;SDS011;23934;47.998;9.832;2023-11-21T11:05:07;0.82;;;0.63;;
38123;SDS011;23934;47.998;9.832;2023-11-21T11:07:36;1.83;;;0.98;;
38123;SDS011;23934;47.998;9.832;2023-11-21T11:10:03;2.05;;;1.08;;
38123;SDS011;23934;47.998;9.832;2023-11-21T11:12:30;1.35;;;0.95;;
38123;SDS011;23934;47.998;9.832;2023-11-21T11:14:56;0.90;;;0.60;;
38123;SDS011;23934;47.998;9.832;2023-11-21T11:17:22;0.82;;;0.73;;
38123;SDS011;23934;47.998;9.832;2023-11-21T11:19:48;2.08;;;1.17;;
38123;SDS011;23934;47.998;9.832;2023-11-21T11:22:28;1.15;;;0.80;;
38123;SDS011;23934;47.998;9.832;2023-11-21T11:25:05;3.55;;;1.17;;
38123;SDS011;23934;47.998;9.832;2023-11-21T11:27:54;1.23;;;0.80;;
38123;SDS011;23934;47.998;9.832;2023-11-21T11:33:38;2.30;;;1.15;;
38123;SDS011;23934;47.998;9.832;2023-11-21T11:35:52;1.13;;;0.65;;
38123;SDS011;23934;47.998;9.832;2023-11-21T11:38:21;3.92;;;1.08;;
38123;SDS011;23934;47.998;9.832;2023-11-21T11:43:24;0.90;;;0.70;;
38123;SDS011;23934;47.998;9.832;2023-11-21T11:45:50;3.97;;;0.90;;
38123;SDS011;23934;47.998;9.832;2023-11-21T11:48:18;1.27;;;0.95;;
38123;SDS011;23934;47.998;9.832;2023-11-21T11:53:33;2.17;;;1.00;;
38123;SDS011;23934;47.998;9.832;2023-11-21T11:58:43;7.38;;;1.83;;
38123;SDS011;23934;47.998;9.832;2023-11-21T12:01:10;2.42;;;0.98;;
38123;SDS011;23934;47.998;9.832;2023-11-21T12:03:37;2.50;;;1.10;;
38123;SDS011;23934;47.998;9.832;2023-11-21T12:06:04;2.03;;;0.80;;
38123;SDS011;23934;47.998;9.832;2023-11-21T12:08:31;1.23;;;0.73;;
38123;SDS011;23934;47.998;9.832;2023-11-21T12:10:58;11.77;;;1.40;;
38123;SDS011;23934;47.998;9.832;2023-11-21T12:13:24;5.05;;;1.48;;
38123;SDS011;23934;47.998;9.832;2023-11-21T12:15:50;2.28;;;1.17;;
38123;SDS011;23934;47.998;9.832;2023-11-21T12:18:16;3.22;;;1.23;;
38123;SDS011;23934;47.998;9.832;2023-11-21T12:20:42;2.67;;;1.65;;
38123;SDS011;23934;47.998;9.832;2023-11-21T12:23:11;1.33;;;0.93;;
38123;SDS011;23934;47.998;9.832;2023-11-21T12:25:40;2.20;;;0.93;;
38123;SDS011;23934;47.998;9.832;2023-11-21T12:28:07;2.65;;;0.65;;
38123;SDS011;23934;47.998;9.832;2023-11-21T12:30:36;0.90;;;0.40;;
38123;SDS011;23934;47.998;9.832;2023-11-21T12:33:02;1.25;;;0.80;;
38123;SDS011;23934;47.998;9.832;2023-11-21T12:35:33;0.80;;;0.57;;
38123;SDS011;23934;47.998;9.832;2023-11-21T12:37:59;1.23;;;0.63;;
38123;SDS011;23934;47.998;9.832;2023-11-21T12:40:27;1.15;;;0.40;;
38123;SDS011;23934;47.998;9.832;2023-11-21T12:42:55;1.85;;;0.70;;
38123;SDS011;23934;47.998;9.832;2023-11-21T12:45:23;1.38;;;0.50;;
38123;SDS011;23934;47.998;9.832;2023-11-21T12:47:51;0.93;;;0.73;;
38123;SDS011;23934;47.998;9.832;2023-11-21T12:50:19;1.15;;;0.63;;
38123;SDS011;23934;47.998;9.832;2023-11-21T12:52:48;2.38;;;0.70;;
38123;SDS011;23934;47.998;9.832;2023-11-21T12:55:17;0.43;;;0.43;;
38123;SDS011;23934;47.998;9.832;2023-11-21T12:57:44;0.75;;;0.52;;
38123;SDS011;23934;47.998;9.832;2023-11-21T13:00:12;2.83;;;0.77;;
38123;SDS011;23934;47.998;9.832;2023-11-21T13:02:49;0.32;;;0.20;;
38123;SDS011;23934;47.998;9.832;2023-11-21T13:05:22;0.77;;;0.38;;
38123;SDS011;23934;47.998;9.832;2023-11-21T13:07:49;0.55;;;0.30;;
38123;SDS011;23934;47.998;9.832;2023-11-21T13:10:19;1.15;;;0.80;;
38123;SDS011;23934;47.998;9.832;2023-11-21T13:12:45;5.43;;;0.73;;
38123;SDS011;23934;47.998;9.832;2023-11-21T13:15:16;0.77;;;0.28;;
38123;SDS011;23934;47.998;9.832;2023-11-21T13:17:43;1.75;;;0.50;;
38123;SDS011;23934;47.998;9.832;2023-11-21T13:20:12;0.20;;;0.20;;
38123;SDS011;23934;47.998;9.832;2023-11-21T13:22:52;1.60;;;0.70;;
38123;SDS011;23934;47.998;9.832;2023-11-21T13:25:25;0.93;;;0.60;;
38123;SDS011;23934;47.998;9.832;2023-11-21T13:27:56;0.40;;;0.35;;
38123;SDS011;23934;47.998;9.832;2023-11-21T13:30:22;0.40;;;0.40;;
38123;SDS011;23934;47.998;9.832;2023-11-21T13:32:55;1.27;;;0.70;;
38123;SDS011;23934;47.998;9.832;2023-11-21T13:35:30;3.53;;;0.70;;
38123;SDS011;23934;47.998;9.832;2023-11-21T13:38:02;0.60;;;0.50;;
38123;SDS011;23934;47.998;9.832;2023-11-21T13:40:28;2.30;;;0.67;;
38123;SDS011;23934;47.998;9.832;2023-11-21T13:42:54;0.80;;;0.60;;
38123;SDS011;23934;47.998;9.832;2023-11-21T13:45:24;2.30;;;0.90;;
38123;SDS011;23934;47.998;9.832;2023-11-21T13:47:51;2.08;;;1.00;;
38123;SDS011;23934;47.998;9.832;2023-11-21T13:50:20;0.45;;;0.40;;
38123;SDS011;23934;47.998;9.832;2023-11-21T13:52:51;1.08;;;0.60;;
38123;SDS011;23934;47.998;9.832;2023-11-21T13:55:18;1.90;;;0.60;;
38123;SDS011;23934;47.998;9.832;2023-11-21T13:57:44;1.20;;;0.73;;
38123;SDS011;23934;47.998;9.832;2023-11-21T14:00:14;2.97;;;0.60;;
38123;SDS011;23934;47.998;9.832;2023-11-21T14:03:00;0.88;;;0.70;;
38123;SDS011;23934;47.998;9.832;2023-11-21T14:05:30;5.47;;;0.45;;
38123;SDS011;23934;47.998;9.832;2023-11-21T14:07:59;0.40;;;0.40;;
38123;SDS011;23934;47.998;9.832;2023-11-21T14:10:30;1.33;;;0.68;;
38123;SDS011;23934;47.998;9.832;2023-11-21T14:13:05;1.23;;;0.90;;
38123;SDS011;23934;47.998;9.832;2023-11-21T14:15:32;1.67;;;0.80;;
38123;SDS011;23934;47.998;9.832;2023-11-21T14:18:02;2.30;;;0.60;;
38123;SDS011;23934;47.998;9.832;2023-11-21T14:20:35;0.82;;;0.70;;
38123;SDS011;23934;47.998;9.832;2023-11-21T14:23:02;0.68;;;0.50;;
38123;SDS011;23934;47.998;9.832;2023-11-21T14:25:29;1.10;;;0.60;;
38123;SDS011;23934;47.998;9.832;2023-11-21T14:27:55;1.73;;;0.70;;
38123;SDS011;23934;47.998;9.832;2023-11-21T14:30:21;5.68;;;0.82;;
38123;SDS011;23934;47.998;9.832;2023-11-21T14:32:48;2.28;;;0.30;;
38123;SDS011;23934;47.998;9.832;2023-11-21T14:35:15;3.90;;;0.85;;
38123;SDS011;23934;47.998;9.832;2023-11-21T14:37:42;2.15;;;0.73;;
38123;SDS011;23934;47.998;9.832;2023-11-21T14:40:08;1.15;;;0.50;;
38123;SDS011;23934;47.998;9.832;2023-11-21T14:42:34;0.55;;;0.40;;
38123;SDS011;23934;47.998;9.832;2023-11-21T14:45:04;0.30;;;0.30;;
38123;SDS011;23934;47.998;9.832;2023-11-21T14:47:32;2.63;;;0.60;;
38123;SDS011;23934;47.998;9.832;2023-11-21T14:49:59;0.63;;;0.40;;
38123;SDS011;23934;47.998;9.832;2023-11-21T14:52:31;3.45;;;1.00;;
38123;SDS011;23934;47.998;9.832;2023-11-21T14:55:05;0.73;;;0.50;;
38123;SDS011;23934;47.998;9.832;2023-11-21T14:57:56;0.90;;;0.65;;
38123;SDS011;23934;47.998;9.832;2023-11-21T15:00:25;1.13;;;0.52;;